sensor_id;sensor_type;location;lat;lon;timestamp;P1;durP1;ratioP1;P2;durP2;ratioP2
45328;SDS011;31063;48.356;10.896;2022-09-09T00:04:52;4.68;;;2.10;;
45328;SDS011;31063;48.356;10.896;2022-09-09T00:15:31;2.92;;;1.70;;
45328;SDS011;31063;48.356;10.896;2022-09-09T00:20:52;2.97;;;2.67;;
45328;SDS011;31063;48.356;10.896;2022-09-09T00:23:35;5.43;;;2.55;;
45328;SDS011;31063;48.356;10.896;2022-09-09T00:28:39;5.75;;;2.58;;
45328;SDS011;31063;48.356;10.896;2022-09-09T00:31:13;3.88;;;2.65;;
45328;SDS011;31063;48.356;10.896;2022-09-09T00:33:44;6.18;;;2.33;;
45328;SDS011;31063;48.356;10.896;2022-09-09T00:36:13;6.20;;;2.80;;
45328;SDS011;31063;48.356;10.896;2022-09-09T00:38:44;7.30;;;2.95;;
45328;SDS011;31063;48.356;10.896;2022-09-09T00:43:43;3.45;;;2.55;;
45328;SDS011;31063;48.356;10.896;2022-09-09T00:46:37;6.95;;;3.20;;
45328;SDS011;31063;48.356;10.896;2022-09-09T00:49:35;7.05;;;2.92;;
45328;SDS011;31063;48.356;10.896;2022-09-09T00:55:39;4.50;;;3.20;;
45328;SDS011;31063;48.356;10.896;2022-09-09T00:58:13;6.70;;;2.92;;
45328;SDS011;31063;48.356;10.896;2022-09-09T01:11:49;6.63;;;3.05;;
45328;SDS011;31063;48.356;10.896;2022-09-09T01:20:04;3.80;;;2.50;;
45328;SDS011;31063;48.356;10.896;2022-09-09T01:28:42;7.70;;;2.83;;
45328;SDS011;31063;48.356;10.896;2022-09-09T01:31:11;4.13;;;2.65;;
45328;SDS011;31063;48.356;10.896;2022-09-09T01:33:40;5.47;;;3.10;;
45328;SDS011;31063;48.356;10.896;2022-09-09T01:38:35;5.30;;;3.17;;
45328;SDS011;31063;48.356;10.896;2022-09-09T01:41:01;5.97;;;2.83;;
45328;SDS011;31063;48.356;10.896;2022-09-09T01:43:27;4.80;;;3.30;;
45328;SDS011;31063;48.356;10.896;2022-09-09T01:45:55;4.03;;;3.03;;
45328;SDS011;31063;48.356;10.896;2022-09-09T01:48:24;3.67;;;2.88;;
45328;SDS011;31063;48.356;10.896;2022-09-09T01:50:50;4.50;;;2.80;;
45328;SDS011;31063;48.356;10.896;2022-09-09T01:53:17;7.97;;;2.75;;
45328;SDS011;31063;48.356;10.896;2022-09-09T01:56:30;5.47;;;2.67;;
45328;SDS011;31063;48.356;10.896;2022-09-09T01:59:00;5.22;;;2.80;;
45328;SDS011;31063;48.356;10.896;2022-09-09T02:04:17;4.53;;;2.60;;
45328;SDS011;31063;48.356;10.896;2022-09-09T02:06:50;5.13;;;2.70;;
45328;SDS011;31063;48.356;10.896;2022-09-09T02:09:21;3.30;;;2.42;;
45328;SDS011;31063;48.356;10.896;2022-09-09T02:11:49;3.53;;;2.45;;
45328;SDS011;31063;48.356;10.896;2022-09-09T02:14:35;5.22;;;2.50;;
45328;SDS011;31063;48.356;10.896;2022-09-09T02:17:08;4.68;;;2.55;;
45328;SDS011;31063;48.356;10.896;2022-09-09T02:19:46;6.35;;;3.00;;
45328;SDS011;31063;48.356;10.896;2022-09-09T02:22:17;10.23;;;2.92;;
45328;SDS011;31063;48.356;10.896;2022-09-09T02:24:46;5.28;;;2.50;;
45328;SDS011;31063;48.356;10.896;2022-09-09T02:27:12;7.88;;;2.85;;
45328;SDS011;31063;48.356;10.896;2022-09-09T02:29:40;4.88;;;2.63;;
45328;SDS011;31063;48.356;10.896;2022-09-09T02:32:11;2.80;;;2.30;;
45328;SDS011;31063;48.356;10.896;2022-09-09T02:34:44;4.57;;;2.60;;
45328;SDS011;31063;48.356;10.896;2022-09-09T02:37:17;3.83;;;2.88;;
45328;SDS011;31063;48.356;10.896;2022-09-09T02:39:46;5.72;;;2.40;;
45328;SDS011;31063;48.356;10.896;2022-09-09T02:42:12;5.57;;;2.58;;
45328;SDS011;31063;48.356;10.896;2022-09-09T02:44:39;5.53;;;3.05;;
45328;SDS011;31063;48.356;10.896;2022-09-09T02:52:30;6.80;;;2.80;;
45328;SDS011;31063;48.356;10.896;2022-09-09T02:55:23;3.70;;;2.60;;
45328;SDS011;31063;48.356;10.896;2022-09-09T02:58:01;4.22;;;2.90;;
45328;SDS011;31063;48.356;10.896;2022-09-09T03:00:31;3.67;;;2.50;;
45328;SDS011;31063;48.356;10.896;2022-09-09T03:02:57;6.97;;;2.80;;
45328;SDS011;31063;48.356;10.896;2022-09-09T03:05:23;4.93;;;2.92;;
45328;SDS011;31063;48.356;10.896;2022-09-09T03:07:48;9.37;;;2.83;;
45328;SDS011;31063;48.356;10.896;2022-09-09T03:12:42;3.65;;;2.70;;
45328;SDS011;31063;48.356;10.896;2022-09-09T03:15:08;5.57;;;2.90;;
45328;SDS011;31063;48.356;10.896;2022-09-09T03:17:34;4.63;;;2.72;;
45328;SDS011;31063;48.356;10.896;2022-09-09T03:20:01;3.43;;;2.53;;
45328;SDS011;31063;48.356;10.896;2022-09-09T03:22:28;5.07;;;2.70;;
45328;SDS011;31063;48.356;10.896;2022-09-09T03:24:53;4.03;;;2.80;;
45328;SDS011;31063;48.356;10.896;2022-09-09T03:27:19;5.00;;;2.83;;
45328;SDS011;31063;48.356;10.896;2022-09-09T03:29:45;4.17;;;2.63;;
45328;SDS011;31063;48.356;10.896;2022-09-09T03:32:11;3.05;;;2.63;;
45328;SDS011;31063;48.356;10.896;2022-09-09T03:34:38;5.82;;;2.70;;
45328;SDS011;31063;48.356;10.896;2022-09-09T03:37:06;7.85;;;2.90;;
45328;SDS011;31063;48.356;10.896;2022-09-09T03:39:32;6.53;;;2.50;;
45328;SDS011;31063;48.356;10.896;2022-09-09T03:41:57;7.80;;;2.77;;
45328;SDS011;31063;48.356;10.896;2022-09-09T03:44:23;5.43;;;2.80;;
45328;SDS011;31063;48.356;10.896;2022-09-09T03:46:48;6.27;;;3.20;;
45328;SDS011;31063;48.356;10.896;2022-09-09T03:49:14;6.03;;;2.80;;
45328;SDS011;31063;48.356;10.896;2022-09-09T03:51:40;4.57;;;3.10;;
45328;SDS011;31063;48.356;10.896;2022-09-09T03:54:06;6.43;;;2.95;;
45328;SDS011;31063;48.356;10.896;2022-09-09T03:56:33;3.38;;;2.60;;
45328;SDS011;31063;48.356;10.896;2022-09-09T03:58:59;5.82;;;3.40;;
45328;SDS011;31063;48.356;10.896;2022-09-09T04:01:25;7.20;;;4.00;;
45328;SDS011;31063;48.356;10.896;2022-09-09T04:03:51;4.70;;;3.53;;
45328;SDS011;31063;48.356;10.896;2022-09-09T04:06:17;5.60;;;2.80;;
45328;SDS011;31063;48.356;10.896;2022-09-09T04:08:45;4.25;;;2.72;;
45328;SDS011;31063;48.356;10.896;2022-09-09T04:11:13;4.47;;;3.03;;
45328;SDS011;31063;48.356;10.896;2022-09-09T04:13:40;6.53;;;3.10;;
45328;SDS011;31063;48.356;10.896;2022-09-09T04:16:06;5.15;;;3.03;;
45328;SDS011;31063;48.356;10.896;2022-09-09T04:18:35;4.70;;;2.50;;
45328;SDS011;31063;48.356;10.896;2022-09-09T04:21:01;6.03;;;3.00;;
45328;SDS011;31063;48.356;10.896;2022-09-09T04:23:28;4.90;;;3.00;;
45328;SDS011;31063;48.356;10.896;2022-09-09T04:25:54;3.77;;;3.00;;
45328;SDS011;31063;48.356;10.896;2022-09-09T04:28:22;7.97;;;2.80;;
45328;SDS011;31063;48.356;10.896;2022-09-09T04:30:49;6.85;;;2.58;;
45328;SDS011;31063;48.356;10.896;2022-09-09T04:33:15;4.47;;;2.53;;
45328;SDS011;31063;48.356;10.896;2022-09-09T04:35:49;8.15;;;2.70;;
45328;SDS011;31063;48.356;10.896;2022-09-09T04:38:15;8.52;;;2.70;;
45328;SDS011;31063;48.356;10.896;2022-09-09T04:40:48;5.75;;;3.10;;
45328;SDS011;31063;48.356;10.896;2022-09-09T04:43:16;4.80;;;2.88;;
45328;SDS011;31063;48.356;10.896;2022-09-09T04:45:43;5.38;;;2.67;;
45328;SDS011;31063;48.356;10.896;2022-09-09T04:48:11;8.80;;;2.80;;
45328;SDS011;31063;48.356;10.896;2022-09-09T04:50:37;8.20;;;2.80;;
45328;SDS011;31063;48.356;10.896;2022-09-09T04:53:03;7.90;;;3.50;;
45328;SDS011;31063;48.356;10.896;2022-09-09T04:55:30;3.33;;;2.60;;
45328;SDS011;31063;48.356;10.896;2022-09-09T04:57:56;6.90;;;2.70;;
45328;SDS011;31063;48.356;10.896;2022-09-09T05:00:22;5.15;;;2.83;;
45328;SDS011;31063;48.356;10.896;2022-09-09T05:02:49;5.63;;;2.90;;
45328;SDS011;31063;48.356;10.896;2022-09-09T05:05:14;7.40;;;2.93;;
45328;SDS011;31063;48.356;10.896;2022-09-09T05:07:40;8.83;;;3.27;;
45328;SDS011;31063;48.356;10.896;2022-09-09T05:10:06;5.57;;;2.78;;
45328;SDS011;31063;48.356;10.896;2022-09-09T05:12:32;5.88;;;3.08;;
45328;SDS011;31063;48.356;10.896;2022-09-09T05:14:58;8.00;;;3.00;;
45328;SDS011;31063;48.356;10.896;2022-09-09T05:17:23;3.37;;;2.60;;
45328;SDS011;31063;48.356;10.896;2022-09-09T05:19:49;8.40;;;3.30;;
45328;SDS011;31063;48.356;10.896;2022-09-09T05:22:19;4.90;;;2.83;;
45328;SDS011;31063;48.356;10.896;2022-09-09T05:24:46;4.28;;;2.45;;
45328;SDS011;31063;48.356;10.896;2022-09-09T05:27:11;4.70;;;2.93;;
45328;SDS011;31063;48.356;10.896;2022-09-09T05:29:37;7.83;;;3.27;;
45328;SDS011;31063;48.356;10.896;2022-09-09T05:32:04;5.00;;;3.10;;
45328;SDS011;31063;48.356;10.896;2022-09-09T05:34:29;5.50;;;2.63;;
45328;SDS011;31063;48.356;10.896;2022-09-09T05:36:55;8.00;;;3.00;;
45328;SDS011;31063;48.356;10.896;2022-09-09T05:39:20;8.20;;;2.97;;
45328;SDS011;31063;48.356;10.896;2022-09-09T05:41:46;9.20;;;2.83;;
45328;SDS011;31063;48.356;10.896;2022-09-09T05:44:12;8.57;;;3.10;;
45328;SDS011;31063;48.356;10.896;2022-09-09T05:46:38;3.17;;;2.20;;
45328;SDS011;31063;48.356;10.896;2022-09-09T05:49:03;6.07;;;2.40;;
45328;SDS011;31063;48.356;10.896;2022-09-09T05:51:30;3.92;;;2.20;;
45328;SDS011;31063;48.356;10.896;2022-09-09T05:53:56;5.13;;;2.27;;
45328;SDS011;31063;48.356;10.896;2022-09-09T05:56:26;4.10;;;1.75;;
45328;SDS011;31063;48.356;10.896;2022-09-09T05:58:53;4.25;;;2.15;;
45328;SDS011;31063;48.356;10.896;2022-09-09T06:01:20;2.90;;;1.67;;
45328;SDS011;31063;48.356;10.896;2022-09-09T06:03:49;5.53;;;1.95;;
45328;SDS011;31063;48.356;10.896;2022-09-09T06:06:19;4.63;;;2.08;;
45328;SDS011;31063;48.356;10.896;2022-09-09T06:08:46;5.97;;;2.25;;
45328;SDS011;31063;48.356;10.896;2022-09-09T06:11:14;6.53;;;1.85;;
45328;SDS011;31063;48.356;10.896;2022-09-09T06:13:41;4.75;;;1.98;;
45328;SDS011;31063;48.356;10.896;2022-09-09T06:16:10;4.23;;;1.67;;
45328;SDS011;31063;48.356;10.896;2022-09-09T06:18:38;5.80;;;1.90;;
45328;SDS011;31063;48.356;10.896;2022-09-09T06:21:05;4.65;;;2.35;;
45328;SDS011;31063;48.356;10.896;2022-09-09T06:23:33;3.90;;;2.00;;
45328;SDS011;31063;48.356;10.896;2022-09-09T06:26:12;5.40;;;1.60;;
45328;SDS011;31063;48.356;10.896;2022-09-09T06:28:39;2.78;;;1.65;;
45328;SDS011;31063;48.356;10.896;2022-09-09T06:31:07;4.38;;;1.60;;
45328;SDS011;31063;48.356;10.896;2022-09-09T06:33:35;9.60;;;2.33;;
45328;SDS011;31063;48.356;10.896;2022-09-09T06:36:04;3.85;;;1.80;;
45328;SDS011;31063;48.356;10.896;2022-09-09T06:38:30;2.95;;;1.58;;
45328;SDS011;31063;48.356;10.896;2022-09-09T06:40:57;3.57;;;1.90;;
45328;SDS011;31063;48.356;10.896;2022-09-09T06:43:24;4.32;;;1.77;;
45328;SDS011;31063;48.356;10.896;2022-09-09T06:45:54;7.43;;;1.95;;
45328;SDS011;31063;48.356;10.896;2022-09-09T06:48:21;4.05;;;1.63;;
45328;SDS011;31063;48.356;10.896;2022-09-09T06:50:47;3.37;;;1.70;;
45328;SDS011;31063;48.356;10.896;2022-09-09T06:53:16;5.80;;;1.88;;
45328;SDS011;31063;48.356;10.896;2022-09-09T06:55:44;2.65;;;1.67;;
45328;SDS011;31063;48.356;10.896;2022-09-09T06:58:10;2.50;;;1.70;;
45328;SDS011;31063;48.356;10.896;2022-09-09T07:00:36;4.27;;;2.03;;
45328;SDS011;31063;48.356;10.896;2022-09-09T07:03:04;3.13;;;1.90;;
45328;SDS011;31063;48.356;10.896;2022-09-09T07:05:31;2.58;;;1.80;;
45328;SDS011;31063;48.356;10.896;2022-09-09T07:07:56;3.47;;;1.80;;
45328;SDS011;31063;48.356;10.896;2022-09-09T07:10:23;5.97;;;1.60;;
45328;SDS011;31063;48.356;10.896;2022-09-09T07:12:52;5.82;;;1.65;;
45328;SDS011;31063;48.356;10.896;2022-09-09T07:15:18;5.82;;;2.30;;
45328;SDS011;31063;48.356;10.896;2022-09-09T07:17:44;5.70;;;2.33;;
45328;SDS011;31063;48.356;10.896;2022-09-09T07:20:10;5.30;;;1.90;;
45328;SDS011;31063;48.356;10.896;2022-09-09T07:22:36;8.70;;;2.30;;
45328;SDS011;31063;48.356;10.896;2022-09-09T07:25:02;6.27;;;2.20;;
45328;SDS011;31063;48.356;10.896;2022-09-09T07:29:55;2.65;;;1.85;;
45328;SDS011;31063;48.356;10.896;2022-09-09T07:32:20;4.60;;;2.13;;
45328;SDS011;31063;48.356;10.896;2022-09-09T07:34:46;5.70;;;2.27;;
45328;SDS011;31063;48.356;10.896;2022-09-09T07:37:12;6.07;;;2.15;;
45328;SDS011;31063;48.356;10.896;2022-09-09T07:39:38;3.53;;;2.05;;
45328;SDS011;31063;48.356;10.896;2022-09-09T07:42:04;4.07;;;1.92;;
45328;SDS011;31063;48.356;10.896;2022-09-09T07:44:30;11.02;;;2.30;;
45328;SDS011;31063;48.356;10.896;2022-09-09T07:46:59;6.35;;;2.47;;
45328;SDS011;31063;48.356;10.896;2022-09-09T07:49:26;7.45;;;2.25;;
45328;SDS011;31063;48.356;10.896;2022-09-09T07:51:51;8.63;;;2.50;;
45328;SDS011;31063;48.356;10.896;2022-09-09T07:54:17;5.20;;;2.70;;
45328;SDS011;31063;48.356;10.896;2022-09-09T07:56:48;8.48;;;2.38;;
45328;SDS011;31063;48.356;10.896;2022-09-09T07:59:14;4.63;;;1.98;;
45328;SDS011;31063;48.356;10.896;2022-09-09T08:01:45;6.82;;;2.10;;
45328;SDS011;31063;48.356;10.896;2022-09-09T08:04:21;2.97;;;1.75;;
45328;SDS011;31063;48.356;10.896;2022-09-09T08:06:49;3.93;;;1.80;;
45328;SDS011;31063;48.356;10.896;2022-09-09T08:09:20;5.40;;;1.83;;
45328;SDS011;31063;48.356;10.896;2022-09-09T08:11:47;8.13;;;2.05;;
45328;SDS011;31063;48.356;10.896;2022-09-09T08:14:13;1.77;;;1.33;;
45328;SDS011;31063;48.356;10.896;2022-09-09T08:16:40;5.85;;;1.80;;
45328;SDS011;31063;48.356;10.896;2022-09-09T08:19:08;3.88;;;1.70;;
45328;SDS011;31063;48.356;10.896;2022-09-09T08:21:34;3.33;;;1.50;;
45328;SDS011;31063;48.356;10.896;2022-09-09T08:24:02;2.20;;;1.10;;
45328;SDS011;31063;48.356;10.896;2022-09-09T08:26:35;2.40;;;1.58;;
45328;SDS011;31063;48.356;10.896;2022-09-09T08:29:07;3.47;;;1.50;;
45328;SDS011;31063;48.356;10.896;2022-09-09T08:31:34;3.50;;;1.33;;
45328;SDS011;31063;48.356;10.896;2022-09-09T08:34:04;4.40;;;1.52;;
45328;SDS011;31063;48.356;10.896;2022-09-09T08:36:33;5.47;;;1.75;;
45328;SDS011;31063;48.356;10.896;2022-09-09T08:39:04;4.88;;;1.75;;
45328;SDS011;31063;48.356;10.896;2022-09-09T08:41:41;2.45;;;1.27;;
45328;SDS011;31063;48.356;10.896;2022-09-09T08:50:04;4.60;;;1.48;;
45328;SDS011;31063;48.356;10.896;2022-09-09T08:58:14;2.70;;;1.08;;
45328;SDS011;31063;48.356;10.896;2022-09-09T09:09:01;3.83;;;1.60;;
45328;SDS011;31063;48.356;10.896;2022-09-09T09:11:44;2.28;;;1.15;;
45328;SDS011;31063;48.356;10.896;2022-09-09T09:14:25;1.85;;;1.20;;
45328;SDS011;31063;48.356;10.896;2022-09-09T09:17:00;4.35;;;1.05;;
45328;SDS011;31063;48.356;10.896;2022-09-09T09:19:38;4.28;;;1.33;;
45328;SDS011;31063;48.356;10.896;2022-09-09T09:27:27;2.25;;;1.00;;
45328;SDS011;31063;48.356;10.896;2022-09-09T09:29:58;2.33;;;0.98;;
45328;SDS011;31063;48.356;10.896;2022-09-09T09:32:28;2.33;;;1.00;;
45328;SDS011;31063;48.356;10.896;2022-09-09T09:34:58;3.50;;;0.88;;
45328;SDS011;31063;48.356;10.896;2022-09-09T09:37:30;2.45;;;0.90;;
45328;SDS011;31063;48.356;10.896;2022-09-09T09:40:11;4.05;;;1.15;;
45328;SDS011;31063;48.356;10.896;2022-09-09T09:42:52;2.92;;;1.67;;
45328;SDS011;31063;48.356;10.896;2022-09-09T09:50:27;4.97;;;0.90;;
45328;SDS011;31063;48.356;10.896;2022-09-09T09:52:57;3.33;;;1.00;;
45328;SDS011;31063;48.356;10.896;2022-09-09T09:55:46;2.92;;;1.08;;
45328;SDS011;31063;48.356;10.896;2022-09-09T09:58:22;5.03;;;1.30;;
45328;SDS011;31063;48.356;10.896;2022-09-09T10:00:50;2.60;;;1.10;;
45328;SDS011;31063;48.356;10.896;2022-09-09T10:03:22;3.20;;;1.10;;
45328;SDS011;31063;48.356;10.896;2022-09-09T10:05:52;3.05;;;1.00;;
45328;SDS011;31063;48.356;10.896;2022-09-09T10:08:19;3.17;;;1.30;;
45328;SDS011;31063;48.356;10.896;2022-09-09T10:18:59;2.35;;;1.20;;
45328;SDS011;31063;48.356;10.896;2022-09-09T10:26:42;4.93;;;1.00;;
45328;SDS011;31063;48.356;10.896;2022-09-09T10:42:46;2.83;;;1.17;;
45328;SDS011;31063;48.356;10.896;2022-09-09T10:45:20;5.20;;;1.20;;
45328;SDS011;31063;48.356;10.896;2022-09-09T10:51:28;4.47;;;1.20;;
45328;SDS011;31063;48.356;10.896;2022-09-09T10:56:44;5.53;;;1.50;;
45328;SDS011;31063;48.356;10.896;2022-09-09T10:59:19;4.55;;;1.40;;
45328;SDS011;31063;48.356;10.896;2022-09-09T11:01:51;4.80;;;1.40;;
45328;SDS011;31063;48.356;10.896;2022-09-09T11:04:26;5.65;;;1.45;;
45328;SDS011;31063;48.356;10.896;2022-09-09T11:06:59;6.53;;;1.60;;
45328;SDS011;31063;48.356;10.896;2022-09-09T11:09:31;2.65;;;1.30;;
45328;SDS011;31063;48.356;10.896;2022-09-09T11:12:02;9.98;;;1.42;;
45328;SDS011;31063;48.356;10.896;2022-09-09T11:14:42;8.13;;;1.60;;
45328;SDS011;31063;48.356;10.896;2022-09-09T11:19:45;3.78;;;1.30;;
45328;SDS011;31063;48.356;10.896;2022-09-09T11:24:51;4.03;;;1.20;;
45328;SDS011;31063;48.356;10.896;2022-09-09T11:27:24;5.75;;;1.75;;
45328;SDS011;31063;48.356;10.896;2022-09-09T11:30:19;3.70;;;1.20;;
45328;SDS011;31063;48.356;10.896;2022-09-09T11:41:21;3.30;;;0.98;;
45328;SDS011;31063;48.356;10.896;2022-09-09T11:43:47;4.03;;;1.27;;
45328;SDS011;31063;48.356;10.896;2022-09-09T11:46:18;5.05;;;1.45;;
45328;SDS011;31063;48.356;10.896;2022-09-09T11:49:04;2.25;;;1.10;;
45328;SDS011;31063;48.356;10.896;2022-09-09T11:51:32;3.95;;;1.00;;
45328;SDS011;31063;48.356;10.896;2022-09-09T11:53:59;3.63;;;1.23;;
45328;SDS011;31063;48.356;10.896;2022-09-09T11:56:44;2.55;;;1.30;;
45328;SDS011;31063;48.356;10.896;2022-09-09T12:07:03;3.38;;;1.15;;
45328;SDS011;31063;48.356;10.896;2022-09-09T12:12:47;4.60;;;1.20;;
45328;SDS011;31063;48.356;10.896;2022-09-09T12:17:37;3.90;;;1.17;;
45328;SDS011;31063;48.356;10.896;2022-09-09T12:20:13;6.57;;;1.30;;
45328;SDS011;31063;48.356;10.896;2022-09-09T12:25:56;6.75;;;1.90;;
45328;SDS011;31063;48.356;10.896;2022-09-09T12:28:50;2.50;;;1.40;;
45328;SDS011;31063;48.356;10.896;2022-09-09T12:31:19;6.07;;;1.50;;
45328;SDS011;31063;48.356;10.896;2022-09-09T12:33:49;7.18;;;1.25;;
45328;SDS011;31063;48.356;10.896;2022-09-09T12:36:21;4.78;;;1.58;;
45328;SDS011;31063;48.356;10.896;2022-09-09T12:41:22;8.32;;;1.40;;
45328;SDS011;31063;48.356;10.896;2022-09-09T12:43:50;4.85;;;1.48;;
45328;SDS011;31063;48.356;10.896;2022-09-09T12:46:41;7.63;;;1.70;;
45328;SDS011;31063;48.356;10.896;2022-09-09T12:52:07;6.07;;;1.30;;
45328;SDS011;31063;48.356;10.896;2022-09-09T12:54:42;4.50;;;1.30;;
45328;SDS011;31063;48.356;10.896;2022-09-09T12:57:16;4.75;;;1.25;;
45328;SDS011;31063;48.356;10.896;2022-09-09T12:59:42;6.63;;;1.60;;
45328;SDS011;31063;48.356;10.896;2022-09-09T13:02:22;3.55;;;1.20;;
45328;SDS011;31063;48.356;10.896;2022-09-09T13:04:51;5.43;;;1.20;;
45328;SDS011;31063;48.356;10.896;2022-09-09T13:07:18;3.60;;;1.20;;
45328;SDS011;31063;48.356;10.896;2022-09-09T13:09:45;7.95;;;1.35;;
45328;SDS011;31063;48.356;10.896;2022-09-09T13:12:29;5.18;;;1.20;;
45328;SDS011;31063;48.356;10.896;2022-09-09T13:14:55;3.80;;;1.10;;
45328;SDS011;31063;48.356;10.896;2022-09-09T13:17:23;3.00;;;1.10;;
45328;SDS011;31063;48.356;10.896;2022-09-09T13:19:50;3.78;;;1.05;;
45328;SDS011;31063;48.356;10.896;2022-09-09T13:25:06;3.47;;;1.20;;
45328;SDS011;31063;48.356;10.896;2022-09-09T13:27:59;4.97;;;1.40;;
45328;SDS011;31063;48.356;10.896;2022-09-09T13:30:31;5.18;;;1.27;;
45328;SDS011;31063;48.356;10.896;2022-09-09T13:35:29;4.97;;;1.25;;
45328;SDS011;31063;48.356;10.896;2022-09-09T13:37:56;6.03;;;1.52;;
45328;SDS011;31063;48.356;10.896;2022-09-09T13:40:23;2.50;;;1.10;;
45328;SDS011;31063;48.356;10.896;2022-09-09T13:42:54;6.28;;;1.00;;
45328;SDS011;31063;48.356;10.896;2022-09-09T13:45:22;6.30;;;1.35;;
45328;SDS011;31063;48.356;10.896;2022-09-09T13:47:52;5.55;;;1.23;;
45328;SDS011;31063;48.356;10.896;2022-09-09T13:52:56;3.80;;;1.20;;
45328;SDS011;31063;48.356;10.896;2022-09-09T13:55:23;3.90;;;1.20;;
45328;SDS011;31063;48.356;10.896;2022-09-09T13:57:57;6.30;;;1.40;;
45328;SDS011;31063;48.356;10.896;2022-09-09T14:00:31;3.65;;;1.23;;
45328;SDS011;31063;48.356;10.896;2022-09-09T14:02:58;4.28;;;1.45;;
45328;SDS011;31063;48.356;10.896;2022-09-09T14:05:27;4.05;;;1.25;;
45328;SDS011;31063;48.356;10.896;2022-09-09T14:07:53;3.15;;;1.30;;
45328;SDS011;31063;48.356;10.896;2022-09-09T14:10:19;11.35;;;1.42;;
45328;SDS011;31063;48.356;10.896;2022-09-09T14:12:45;4.82;;;1.33;;
45328;SDS011;31063;48.356;10.896;2022-09-09T14:15:11;7.80;;;1.90;;
45328;SDS011;31063;48.356;10.896;2022-09-09T14:17:37;4.47;;;1.77;;
45328;SDS011;31063;48.356;10.896;2022-09-09T14:20:04;11.02;;;2.40;;
45328;SDS011;31063;48.356;10.896;2022-09-09T14:22:34;2.88;;;1.42;;
45328;SDS011;31063;48.356;10.896;2022-09-09T14:25:01;2.63;;;1.15;;
45328;SDS011;31063;48.356;10.896;2022-09-09T14:27:28;6.38;;;1.80;;
45328;SDS011;31063;48.356;10.896;2022-09-09T14:32:20;5.03;;;2.15;;
45328;SDS011;31063;48.356;10.896;2022-09-09T14:34:46;4.35;;;2.10;;
45328;SDS011;31063;48.356;10.896;2022-09-09T14:37:16;7.45;;;2.60;;
45328;SDS011;31063;48.356;10.896;2022-09-09T14:39:42;6.40;;;2.13;;
45328;SDS011;31063;48.356;10.896;2022-09-09T14:42:12;4.63;;;1.92;;
45328;SDS011;31063;48.356;10.896;2022-09-09T14:44:38;6.38;;;2.03;;
45328;SDS011;31063;48.356;10.896;2022-09-09T14:47:04;7.70;;;2.53;;
45328;SDS011;31063;48.356;10.896;2022-09-09T14:51:56;5.93;;;2.28;;
45328;SDS011;31063;48.356;10.896;2022-09-09T14:54:22;4.07;;;2.07;;
45328;SDS011;31063;48.356;10.896;2022-09-09T14:56:48;6.03;;;2.33;;
45328;SDS011;31063;48.356;10.896;2022-09-09T14:59:14;6.60;;;2.30;;
45328;SDS011;31063;48.356;10.896;2022-09-09T15:01:39;7.37;;;2.00;;
45328;SDS011;31063;48.356;10.896;2022-09-09T15:04:06;4.80;;;2.17;;
45328;SDS011;31063;48.356;10.896;2022-09-09T15:06:32;9.97;;;2.43;;
45328;SDS011;31063;48.356;10.896;2022-09-09T15:08:59;6.28;;;2.28;;
45328;SDS011;31063;48.356;10.896;2022-09-09T15:11:29;4.03;;;1.75;;
45328;SDS011;31063;48.356;10.896;2022-09-09T15:13:59;3.70;;;2.05;;
45328;SDS011;31063;48.356;10.896;2022-09-09T15:16:26;4.00;;;2.00;;
45328;SDS011;31063;48.356;10.896;2022-09-09T15:18:55;7.90;;;2.20;;
45328;SDS011;31063;48.356;10.896;2022-09-09T15:21:23;6.25;;;2.15;;
45328;SDS011;31063;48.356;10.896;2022-09-09T15:23:50;4.13;;;1.73;;
45328;SDS011;31063;48.356;10.896;2022-09-09T15:26:16;4.45;;;1.67;;
45328;SDS011;31063;48.356;10.896;2022-09-09T15:28:43;4.07;;;1.88;;
45328;SDS011;31063;48.356;10.896;2022-09-09T15:31:13;4.40;;;1.70;;
45328;SDS011;31063;48.356;10.896;2022-09-09T15:33:46;3.95;;;2.03;;
45328;SDS011;31063;48.356;10.896;2022-09-09T15:36:14;3.47;;;1.35;;
45328;SDS011;31063;48.356;10.896;2022-09-09T15:38:50;5.05;;;1.85;;
45328;SDS011;31063;48.356;10.896;2022-09-09T15:41:17;7.03;;;1.80;;
45328;SDS011;31063;48.356;10.896;2022-09-09T15:43:45;2.25;;;1.23;;
45328;SDS011;31063;48.356;10.896;2022-09-09T15:49:07;4.03;;;1.58;;
45328;SDS011;31063;48.356;10.896;2022-09-09T15:51:39;5.30;;;1.42;;
45328;SDS011;31063;48.356;10.896;2022-09-09T15:54:07;5.13;;;1.98;;
45328;SDS011;31063;48.356;10.896;2022-09-09T15:56:33;3.60;;;1.50;;
45328;SDS011;31063;48.356;10.896;2022-09-09T15:58:59;5.28;;;1.90;;
45328;SDS011;31063;48.356;10.896;2022-09-09T16:01:27;4.47;;;2.03;;
45328;SDS011;31063;48.356;10.896;2022-09-09T16:03:54;4.68;;;1.85;;
45328;SDS011;31063;48.356;10.896;2022-09-09T16:06:20;2.95;;;1.83;;
45328;SDS011;31063;48.356;10.896;2022-09-09T16:08:51;3.88;;;1.63;;
45328;SDS011;31063;48.356;10.896;2022-09-09T16:11:19;3.42;;;1.50;;
45328;SDS011;31063;48.356;10.896;2022-09-09T16:13:53;2.90;;;1.35;;
45328;SDS011;31063;48.356;10.896;2022-09-09T16:16:21;4.43;;;2.08;;
45328;SDS011;31063;48.356;10.896;2022-09-09T16:18:50;3.63;;;1.50;;
45328;SDS011;31063;48.356;10.896;2022-09-09T16:23:46;3.15;;;1.30;;
45328;SDS011;31063;48.356;10.896;2022-09-09T16:26:14;2.30;;;1.23;;
45328;SDS011;31063;48.356;10.896;2022-09-09T16:28:41;2.53;;;1.45;;
45328;SDS011;31063;48.356;10.896;2022-09-09T16:31:08;1.90;;;1.38;;
45328;SDS011;31063;48.356;10.896;2022-09-09T16:33:36;2.42;;;1.40;;
45328;SDS011;31063;48.356;10.896;2022-09-09T16:36:06;4.93;;;1.55;;
45328;SDS011;31063;48.356;10.896;2022-09-09T16:38:36;6.07;;;1.45;;
45328;SDS011;31063;48.356;10.896;2022-09-09T16:41:02;2.55;;;1.27;;
45328;SDS011;31063;48.356;10.896;2022-09-09T16:43:33;1.92;;;1.30;;
45328;SDS011;31063;48.356;10.896;2022-09-09T16:46:01;4.10;;;1.10;;
45328;SDS011;31063;48.356;10.896;2022-09-09T16:48:31;4.60;;;1.15;;
45328;SDS011;31063;48.356;10.896;2022-09-09T16:51:05;3.47;;;1.10;;
45328;SDS011;31063;48.356;10.896;2022-09-09T16:53:34;3.67;;;1.15;;
45328;SDS011;31063;48.356;10.896;2022-09-09T16:56:06;3.53;;;1.40;;
45328;SDS011;31063;48.356;10.896;2022-09-09T16:58:33;4.85;;;1.75;;
45328;SDS011;31063;48.356;10.896;2022-09-09T17:01:01;3.13;;;1.60;;
45328;SDS011;31063;48.356;10.896;2022-09-09T17:03:28;4.55;;;1.88;;
45328;SDS011;31063;48.356;10.896;2022-09-09T17:05:54;3.10;;;1.55;;
45328;SDS011;31063;48.356;10.896;2022-09-09T17:08:20;3.65;;;1.40;;
45328;SDS011;31063;48.356;10.896;2022-09-09T17:10:45;6.87;;;1.70;;
45328;SDS011;31063;48.356;10.896;2022-09-09T17:15:41;6.70;;;2.30;;
45328;SDS011;31063;48.356;10.896;2022-09-09T17:18:08;4.65;;;1.85;;
45328;SDS011;31063;48.356;10.896;2022-09-09T17:20:44;3.05;;;1.30;;
45328;SDS011;31063;48.356;10.896;2022-09-09T17:23:10;4.30;;;1.30;;
45328;SDS011;31063;48.356;10.896;2022-09-09T17:25:40;4.28;;;1.30;;
45328;SDS011;31063;48.356;10.896;2022-09-09T17:28:06;4.75;;;1.60;;
45328;SDS011;31063;48.356;10.896;2022-09-09T17:30:35;5.00;;;1.20;;
45328;SDS011;31063;48.356;10.896;2022-09-09T17:33:01;4.32;;;1.48;;
45328;SDS011;31063;48.356;10.896;2022-09-09T17:35:28;4.60;;;2.10;;
45328;SDS011;31063;48.356;10.896;2022-09-09T17:40:21;5.80;;;2.78;;
45328;SDS011;31063;48.356;10.896;2022-09-09T17:42:47;6.07;;;2.92;;
45328;SDS011;31063;48.356;10.896;2022-09-09T17:45:13;3.80;;;2.20;;
45328;SDS011;31063;48.356;10.896;2022-09-09T17:50:08;5.68;;;2.05;;
45328;SDS011;31063;48.356;10.896;2022-09-09T17:52:35;3.90;;;1.58;;